createdAt,value
2022-09-18T00:00:46.228Z,2400.88647
2022-09-18T00:15:48.504Z,1910.73267
2022-09-18T00:30:50.771Z,1494.31873
2022-09-18T00:45:52.980Z,1352.26086
2022-09-18T01:00:55.312Z,1056.21655
2022-09-18T01:15:57.695Z,777.52289
2022-09-18T01:31:00.193Z,442.43979
2022-09-18T01:46:02.416Z,165.91492
2022-09-18T02:01:04.638Z,41.20763
2022-09-18T02:16:07.050Z,5.42206
2022-09-18T02:31:09.358Z,0
2022-09-18T02:46:11.729Z,0
2022-09-18T03:01:14.076Z,0
2022-09-18T03:16:16.545Z,0
2022-09-18T03:31:19.039Z,0
2022-09-18T03:46:21.376Z,0
2022-09-18T04:01:23.634Z,0
2022-09-18T04:16:25.966Z,0
2022-09-18T04:31:28.426Z,0
2022-09-18T04:46:30.758Z,0
2022-09-18T05:01:33.102Z,0
2022-09-18T05:16:35.646Z,0
2022-09-18T05:31:38.008Z,0
2022-09-18T05:46:40.356Z,0
2022-09-18T06:01:46.965Z,0
2022-09-18T06:16:49.695Z,0
2022-09-18T06:31:52.002Z,0
2022-09-18T06:46:54.363Z,0
2022-09-18T07:01:56.711Z,0
2022-09-18T07:16:59.101Z,0
2022-09-18T07:32:01.811Z,0
2022-09-18T07:47:04.359Z,0
2022-09-18T08:02:06.756Z,0
2022-09-18T08:17:09.136Z,0
2022-09-18T08:32:11.358Z,0
2022-09-18T08:47:13.564Z,0
2022-09-18T09:02:15.801Z,0
2022-09-18T09:17:18.111Z,0
2022-09-18T09:32:20.344Z,0
2022-09-18T09:47:22.599Z,0
2022-09-18T10:02:25.081Z,0
2022-09-18T10:17:27.393Z,0
2022-09-18T10:32:29.608Z,0
2022-09-18T10:47:31.878Z,0
2022-09-18T11:02:34.137Z,0
2022-09-18T11:17:36.466Z,0
2022-09-18T11:32:39.020Z,0
2022-09-18T11:47:41.249Z,0
2022-09-18T12:02:43.640Z,0
2022-09-18T12:17:44.713Z,0
2022-09-18T12:32:46.936Z,0
2022-09-18T12:47:49.804Z,0
2022-09-18T13:02:52.014Z,1.08441
2022-09-18T13:17:55.142Z,9.7597
2022-09-18T13:32:57.413Z,55.30497
2022-09-18T13:47:59.577Z,187.60315
2022-09-18T14:03:01.970Z,432.68008
2022-09-18T14:18:04.295Z,735.23083
2022-09-18T14:33:06.547Z,1211.28735
2022-09-18T14:48:11.745Z,3881.10791
2022-09-18T15:03:16.422Z,2690.42432
2022-09-18T15:18:18.792Z,2656.80762
2022-09-18T15:33:21.097Z,2538.60669
2022-09-18T15:48:23.332Z,2755.48901
2022-09-18T16:03:25.575Z,3867.0105
2022-09-18T16:18:27.852Z,5880.76221
2022-09-18T16:33:30.323Z,5630.26318
2022-09-18T16:48:32.555Z,4038.34766
2022-09-18T17:03:34.784Z,3416.97998
2022-09-18T17:18:37.073Z,3709.771
2022-09-18T17:33:39.275Z,4841.89648
2022-09-18T17:48:41.590Z,5669.30225
2022-09-18T18:03:43.895Z,4859.24707
2022-09-18T18:18:46.152Z,6227.77393
2022-09-18T18:33:48.394Z,4044.854
2022-09-18T18:48:50.637Z,4780.08496
2022-09-18T19:03:52.950Z,4564.28711
2022-09-18T19:18:55.380Z,5677.97754
2022-09-18T19:33:57.657Z,5970.76855
2022-09-18T19:48:59.891Z,5542.42578
2022-09-18T20:04:02.163Z,5243.12842
2022-09-18T20:19:04.553Z,5062.03174
2022-09-18T20:34:06.946Z,4575.13135
2022-09-18T20:49:09.295Z,4351.74219
2022-09-18T21:04:11.534Z,3842.06909
2022-09-18T21:19:13.740Z,3914.72461
2022-09-18T21:34:16.050Z,4584.89062
2022-09-18T21:49:18.242Z,6611.65527
2022-09-18T22:04:20.483Z,5699.66553
2022-09-18T22:19:22.828Z,5396.03027
2022-09-18T22:34:25.263Z,4654.29297
2022-09-18T22:49:27.528Z,4381.02148
2022-09-18T23:04:29.848Z,5269.1543
2022-09-18T23:19:32.138Z,4808.27979
2022-09-18T23:34:34.408Z,5327.7124
2022-09-18T23:49:36.599Z,5346.14746
